sensor_id;sensor_type;location;lat;lon;timestamp;pressure;altitude;pressure_sealevel;temperature;humidity
23427;BME280;41148;45.420;10.952;2023-07-29T00:01:00;100447.69;;;24.06;65.78
23427;BME280;41148;45.420;10.952;2023-07-29T00:03:28;100445.13;;;24.05;65.88
23427;BME280;41148;45.420;10.952;2023-07-29T00:05:58;100454.47;;;24.33;64.10
23427;BME280;41148;45.420;10.952;2023-07-29T00:08:26;100444.66;;;24.30;64.17
23427;BME280;41148;45.420;10.952;2023-07-29T00:10:56;100447.13;;;24.12;65.48
23427;BME280;41148;45.420;10.952;2023-07-29T00:13:23;100446.13;;;24.04;65.68
23427;BME280;41148;45.420;10.952;2023-07-29T00:15:54;100446.13;;;24.04;65.99
23427;BME280;41148;45.420;10.952;2023-07-29T00:18:22;100434.75;;;23.98;66.53
23427;BME280;41148;45.420;10.952;2023-07-29T00:20:50;100434.81;;;24.08;62.83
23427;BME280;41148;45.420;10.952;2023-07-29T00:23:18;100439.81;;;24.03;62.07
23427;BME280;41148;45.420;10.952;2023-07-29T00:25:49;100436.34;;;24.01;61.44
23427;BME280;41148;45.420;10.952;2023-07-29T00:28:16;100416.16;;;23.94;60.66
23427;BME280;41148;45.420;10.952;2023-07-29T00:30:48;100427.31;;;24.01;60.42
23427;BME280;41148;45.420;10.952;2023-07-29T00:33:16;100430.59;;;23.94;62.22
23427;BME280;41148;45.420;10.952;2023-07-29T00:35:43;100426.41;;;23.90;62.55
23427;BME280;41148;45.420;10.952;2023-07-29T00:38:11;100422.25;;;23.86;63.42
23427;BME280;41148;45.420;10.952;2023-07-29T00:40:39;100424.09;;;23.86;64.76
23427;BME280;41148;45.420;10.952;2023-07-29T00:43:07;100425.50;;;23.80;65.86
23427;BME280;41148;45.420;10.952;2023-07-29T00:45:35;100423.91;;;23.78;64.40
23427;BME280;41148;45.420;10.952;2023-07-29T00:48:04;100426.06;;;23.74;64.07
23427;BME280;41148;45.420;10.952;2023-07-29T00:50:33;100417.41;;;23.69;63.79
23427;BME280;41148;45.420;10.952;2023-07-29T00:53:01;100424.44;;;23.72;63.31
23427;BME280;41148;45.420;10.952;2023-07-29T00:55:29;100422.28;;;23.65;62.83
23427;BME280;41148;45.420;10.952;2023-07-29T00:57:57;100428.44;;;23.67;62.81
23427;BME280;41148;45.420;10.952;2023-07-29T01:00:26;100426.00;;;23.64;62.77
23427;BME280;41148;45.420;10.952;2023-07-29T01:02:54;100436.38;;;23.59;64.37
23427;BME280;41148;45.420;10.952;2023-07-29T01:05:26;100428.84;;;23.52;65.53
23427;BME280;41148;45.420;10.952;2023-07-29T01:08:12;100426.72;;;23.34;68.75
23427;BME280;41148;45.420;10.952;2023-07-29T01:13:53;100436.78;;;23.23;70.78
23427;BME280;41148;45.420;10.952;2023-07-29T01:16:31;100438.81;;;23.09;72.21
23427;BME280;41148;45.420;10.952;2023-07-29T01:19:05;100435.06;;;22.90;73.48
23427;BME280;41148;45.420;10.952;2023-07-29T01:21:37;100438.09;;;22.96;72.79
23427;BME280;41148;45.420;10.952;2023-07-29T01:24:05;100447.50;;;22.92;73.03
23427;BME280;41148;45.420;10.952;2023-07-29T01:26:33;100443.19;;;22.90;72.90
23427;BME280;41148;45.420;10.952;2023-07-29T01:29:03;100440.09;;;22.83;72.81
23427;BME280;41148;45.420;10.952;2023-07-29T01:31:38;100434.28;;;22.76;73.21
23427;BME280;41148;45.420;10.952;2023-07-29T01:34:26;100448.41;;;22.70;73.11
23427;BME280;41148;45.420;10.952;2023-07-29T01:36:57;100462.22;;;22.67;73.01
23427;BME280;41148;45.420;10.952;2023-07-29T01:39:32;100454.31;;;22.64;72.52
23427;BME280;41148;45.420;10.952;2023-07-29T01:42:02;100461.47;;;22.65;72.42
23427;BME280;41148;45.420;10.952;2023-07-29T01:44:30;100461.00;;;22.60;71.84
23427;BME280;41148;45.420;10.952;2023-07-29T01:46:59;100458.78;;;22.54;71.62
23427;BME280;41148;45.420;10.952;2023-07-29T01:52:30;100451.50;;;22.54;71.29
23427;BME280;41148;45.420;10.952;2023-07-29T01:54:58;100454.59;;;22.50;71.86
23427;BME280;41148;45.420;10.952;2023-07-29T01:57:25;100450.25;;;22.47;71.76
23427;BME280;41148;45.420;10.952;2023-07-29T01:59:53;100450.38;;;22.46;71.89
23427;BME280;41148;45.420;10.952;2023-07-29T02:02:20;100451.13;;;22.48;71.71
23427;BME280;41148;45.420;10.952;2023-07-29T02:04:48;100443.47;;;22.53;71.45
23427;BME280;41148;45.420;10.952;2023-07-29T02:07:19;100452.75;;;22.50;71.58
23427;BME280;41148;45.420;10.952;2023-07-29T02:09:46;100451.75;;;22.51;71.87
23427;BME280;41148;45.420;10.952;2023-07-29T02:12:14;100448.91;;;22.53;71.78
23427;BME280;41148;45.420;10.952;2023-07-29T02:14:41;100439.03;;;22.52;71.97
23427;BME280;41148;45.420;10.952;2023-07-29T02:17:09;100444.72;;;22.49;72.07
23427;BME280;41148;45.420;10.952;2023-07-29T02:19:37;100443.97;;;22.47;71.98
23427;BME280;41148;45.420;10.952;2023-07-29T02:22:05;100432.88;;;22.39;72.16
23427;BME280;41148;45.420;10.952;2023-07-29T02:24:32;100446.97;;;22.33;72.77
23427;BME280;41148;45.420;10.952;2023-07-29T02:26:59;100447.69;;;22.35;72.87
23427;BME280;41148;45.420;10.952;2023-07-29T02:29:27;100437.22;;;22.30;72.48
23427;BME280;41148;45.420;10.952;2023-07-29T02:31:55;100442.66;;;22.30;71.95
23427;BME280;41148;45.420;10.952;2023-07-29T02:34:22;100451.66;;;22.31;72.34
23427;BME280;41148;45.420;10.952;2023-07-29T02:36:50;100440.41;;;22.24;73.30
23427;BME280;41148;45.420;10.952;2023-07-29T02:39:18;100441.75;;;22.18;73.89
23427;BME280;41148;45.420;10.952;2023-07-29T02:41:45;100445.59;;;22.16;74.26
23427;BME280;41148;45.420;10.952;2023-07-29T02:44:13;100444.72;;;22.15;74.00
23427;BME280;41148;45.420;10.952;2023-07-29T02:46:41;100455.84;;;22.12;74.43
23427;BME280;41148;45.420;10.952;2023-07-29T02:49:08;100448.78;;;22.10;74.72
23427;BME280;41148;45.420;10.952;2023-07-29T02:51:36;100454.28;;;21.97;75.69
23427;BME280;41148;45.420;10.952;2023-07-29T02:54:08;100443.94;;;21.91;75.41
23427;BME280;41148;45.420;10.952;2023-07-29T02:56:35;100444.81;;;21.91;75.73
23427;BME280;41148;45.420;10.952;2023-07-29T02:59:03;100436.41;;;21.83;75.42
23427;BME280;41148;45.420;10.952;2023-07-29T03:01:32;100459.00;;;21.95;75.60
23427;BME280;41148;45.420;10.952;2023-07-29T03:03:59;100446.63;;;21.80;75.85
23427;BME280;41148;45.420;10.952;2023-07-29T03:06:28;100441.56;;;21.75;76.22
23427;BME280;41148;45.420;10.952;2023-07-29T03:08:55;100440.47;;;21.78;76.05
23427;BME280;41148;45.420;10.952;2023-07-29T03:11:23;100443.56;;;21.84;75.16
23427;BME280;41148;45.420;10.952;2023-07-29T03:13:50;100445.78;;;21.90;74.89
23427;BME280;41148;45.420;10.952;2023-07-29T03:16:18;100471.81;;;21.93;74.96
23427;BME280;41148;45.420;10.952;2023-07-29T03:18:51;100462.81;;;21.92;74.76
23427;BME280;41148;45.420;10.952;2023-07-29T03:21:19;100470.94;;;21.92;75.37
23427;BME280;41148;45.420;10.952;2023-07-29T03:23:47;100447.47;;;21.80;75.34
23427;BME280;41148;45.420;10.952;2023-07-29T03:26:14;100464.28;;;21.85;75.81
23427;BME280;41148;45.420;10.952;2023-07-29T03:28:43;100466.59;;;21.79;76.18
23427;BME280;41148;45.420;10.952;2023-07-29T03:31:10;100469.31;;;21.79;76.45
23427;BME280;41148;45.420;10.952;2023-07-29T03:33:39;100459.44;;;21.78;76.47
23427;BME280;41148;45.420;10.952;2023-07-29T03:36:07;100468.44;;;21.78;76.18
23427;BME280;41148;45.420;10.952;2023-07-29T03:38:34;100472.53;;;21.84;76.23
23427;BME280;41148;45.420;10.952;2023-07-29T03:41:03;100468.97;;;21.83;75.82
23427;BME280;41148;45.420;10.952;2023-07-29T03:43:31;100459.97;;;21.94;75.47
23427;BME280;41148;45.420;10.952;2023-07-29T03:46:01;100468.09;;;21.94;75.30
23427;BME280;41148;45.420;10.952;2023-07-29T03:48:28;100456.53;;;21.92;74.49
23427;BME280;41148;45.420;10.952;2023-07-29T03:50:56;100454.53;;;21.83;74.74
23427;BME280;41148;45.420;10.952;2023-07-29T03:53:24;100454.41;;;21.84;75.13
23427;BME280;41148;45.420;10.952;2023-07-29T03:55:52;100458.84;;;21.85;74.65
23427;BME280;41148;45.420;10.952;2023-07-29T03:58:20;100475.00;;;21.87;74.74
23427;BME280;41148;45.420;10.952;2023-07-29T04:00:48;100484.97;;;21.86;74.67
23427;BME280;41148;45.420;10.952;2023-07-29T04:03:16;100470.94;;;21.81;74.32
23427;BME280;41148;45.420;10.952;2023-07-29T04:05:44;100470.16;;;21.79;74.55
23427;BME280;41148;45.420;10.952;2023-07-29T04:08:12;100468.97;;;21.83;74.22
23427;BME280;41148;45.420;10.952;2023-07-29T04:10:41;100474.13;;;21.86;74.47
23427;BME280;41148;45.420;10.952;2023-07-29T04:13:09;100493.69;;;21.79;74.45
23427;BME280;41148;45.420;10.952;2023-07-29T04:15:37;100501.09;;;21.77;75.03
23427;BME280;41148;45.420;10.952;2023-07-29T04:18:05;100494.09;;;21.85;75.10
23427;BME280;41148;45.420;10.952;2023-07-29T04:20:33;100508.50;;;21.75;75.03
23427;BME280;41148;45.420;10.952;2023-07-29T04:23:01;100511.22;;;21.86;75.08
23427;BME280;41148;45.420;10.952;2023-07-29T04:25:28;100505.94;;;21.84;74.57
23427;BME280;41148;45.420;10.952;2023-07-29T04:27:56;100489.41;;;21.87;74.63
23427;BME280;41148;45.420;10.952;2023-07-29T04:30:25;100505.84;;;21.97;74.63
23427;BME280;41148;45.420;10.952;2023-07-29T04:32:53;100496.22;;;21.93;74.54
23427;BME280;41148;45.420;10.952;2023-07-29T04:35:21;100502.50;;;21.93;74.83
23427;BME280;41148;45.420;10.952;2023-07-29T04:37:49;100499.06;;;21.91;74.75
23427;BME280;41148;45.420;10.952;2023-07-29T04:40:16;100504.09;;;21.96;75.32
23427;BME280;41148;45.420;10.952;2023-07-29T04:42:44;100496.69;;;21.87;75.09
23427;BME280;41148;45.420;10.952;2023-07-29T04:45:11;100506.69;;;21.97;74.64
23427;BME280;41148;45.420;10.952;2023-07-29T04:47:39;100498.09;;;22.04;74.68
23427;BME280;41148;45.420;10.952;2023-07-29T04:50:07;100494.50;;;22.03;74.38
23427;BME280;41148;45.420;10.952;2023-07-29T04:52:37;100505.03;;;22.08;74.83
23427;BME280;41148;45.420;10.952;2023-07-29T04:55:04;100503.56;;;22.15;75.43
23427;BME280;41148;45.420;10.952;2023-07-29T04:57:32;100501.59;;;22.17;75.34
23427;BME280;41148;45.420;10.952;2023-07-29T05:00:02;100505.53;;;22.24;75.17
23427;BME280;41148;45.420;10.952;2023-07-29T05:02:30;100493.09;;;22.21;74.80
23427;BME280;41148;45.420;10.952;2023-07-29T05:04:58;100501.22;;;22.21;74.64
23427;BME280;41148;45.420;10.952;2023-07-29T05:07:26;100508.72;;;22.29;74.51
23427;BME280;41148;45.420;10.952;2023-07-29T05:09:53;100500.25;;;22.22;74.14
23427;BME280;41148;45.420;10.952;2023-07-29T05:12:21;100514.56;;;22.36;74.06
23427;BME280;41148;45.420;10.952;2023-07-29T05:14:48;100507.91;;;22.51;72.63
23427;BME280;41148;45.420;10.952;2023-07-29T05:17:16;100524.31;;;22.61;72.75
23427;BME280;41148;45.420;10.952;2023-07-29T05:19:44;100531.84;;;22.68;73.09
23427;BME280;41148;45.420;10.952;2023-07-29T05:22:11;100525.03;;;22.63;73.26
23427;BME280;41148;45.420;10.952;2023-07-29T05:24:39;100512.81;;;22.57;73.10
23427;BME280;41148;45.420;10.952;2023-07-29T05:27:07;100524.19;;;22.62;72.96
23427;BME280;41148;45.420;10.952;2023-07-29T05:29:35;100520.59;;;22.62;72.93
23427;BME280;41148;45.420;10.952;2023-07-29T05:32:03;100528.16;;;22.69;72.59
23427;BME280;41148;45.420;10.952;2023-07-29T05:34:31;100520.84;;;22.70;72.80
23427;BME280;41148;45.420;10.952;2023-07-29T05:36:59;100539.84;;;22.81;73.30
23427;BME280;41148;45.420;10.952;2023-07-29T05:39:27;100529.47;;;22.75;73.25
23427;BME280;41148;45.420;10.952;2023-07-29T05:41:54;100519.50;;;22.64;74.19
23427;BME280;41148;45.420;10.952;2023-07-29T05:44:22;100529.00;;;22.70;74.01
23427;BME280;41148;45.420;10.952;2023-07-29T05:46:49;100541.34;;;22.74;74.15
23427;BME280;41148;45.420;10.952;2023-07-29T05:49:17;100539.84;;;22.81;74.50
23427;BME280;41148;45.420;10.952;2023-07-29T05:51:45;100535.78;;;23.09;74.01
23427;BME280;41148;45.420;10.952;2023-07-29T05:54:12;100527.19;;;23.36;73.36
23427;BME280;41148;45.420;10.952;2023-07-29T05:56:40;100525.00;;;23.62;72.28
23427;BME280;41148;45.420;10.952;2023-07-29T05:59:09;100520.28;;;23.53;72.98
23427;BME280;41148;45.420;10.952;2023-07-29T06:01:36;100522.88;;;23.54;72.54
23427;BME280;41148;45.420;10.952;2023-07-29T06:04:04;100529.56;;;23.61;72.86
23427;BME280;41148;45.420;10.952;2023-07-29T06:06:33;100505.59;;;23.55;72.02
23427;BME280;41148;45.420;10.952;2023-07-29T06:09:01;100508.53;;;23.63;71.67
23427;BME280;41148;45.420;10.952;2023-07-29T06:11:29;100513.97;;;23.63;71.76
23427;BME280;41148;45.420;10.952;2023-07-29T06:13:56;100519.84;;;23.80;71.16
23427;BME280;41148;45.420;10.952;2023-07-29T06:16:24;100527.81;;;23.92;70.87
23427;BME280;41148;45.420;10.952;2023-07-29T06:18:52;100531.44;;;24.03;69.78
23427;BME280;41148;45.420;10.952;2023-07-29T06:21:20;100538.38;;;24.07;69.56
23427;BME280;41148;45.420;10.952;2023-07-29T06:23:48;100541.69;;;24.10;69.70
23427;BME280;41148;45.420;10.952;2023-07-29T06:26:15;100543.16;;;24.14;68.46
23427;BME280;41148;45.420;10.952;2023-07-29T06:28:43;100543.59;;;24.19;69.71
23427;BME280;41148;45.420;10.952;2023-07-29T06:31:11;100541.94;;;24.28;69.88
23427;BME280;41148;45.420;10.952;2023-07-29T06:33:38;100552.09;;;24.26;69.74
23427;BME280;41148;45.420;10.952;2023-07-29T06:36:06;100550.47;;;24.35;69.83
23427;BME280;41148;45.420;10.952;2023-07-29T06:38:34;100563.00;;;24.47;69.26
23427;BME280;41148;45.420;10.952;2023-07-29T06:41:01;100554.88;;;24.57;68.50
23427;BME280;41148;45.420;10.952;2023-07-29T06:43:29;100549.28;;;24.58;66.48
23427;BME280;41148;45.420;10.952;2023-07-29T06:45:56;100551.84;;;24.80;67.20
23427;BME280;41148;45.420;10.952;2023-07-29T06:48:24;100562.75;;;24.80;66.26
23427;BME280;41148;45.420;10.952;2023-07-29T06:50:52;100561.88;;;24.90;66.07
23427;BME280;41148;45.420;10.952;2023-07-29T06:53:19;100564.94;;;24.96;65.23
23427;BME280;41148;45.420;10.952;2023-07-29T06:55:47;100565.84;;;25.06;65.05
23427;BME280;41148;45.420;10.952;2023-07-29T06:58:14;100562.00;;;25.19;63.97
23427;BME280;41148;45.420;10.952;2023-07-29T07:00:42;100560.31;;;25.27;63.26
23427;BME280;41148;45.420;10.952;2023-07-29T07:03:10;100559.88;;;25.22;63.71
23427;BME280;41148;45.420;10.952;2023-07-29T07:05:37;100566.06;;;25.34;63.00
23427;BME280;41148;45.420;10.952;2023-07-29T07:08:05;100559.19;;;25.39;63.12
23427;BME280;41148;45.420;10.952;2023-07-29T07:10:33;100566.78;;;25.36;63.65
23427;BME280;41148;45.420;10.952;2023-07-29T07:15:58;100556.72;;;25.27;65.70
23427;BME280;41148;45.420;10.952;2023-07-29T07:18:26;100558.03;;;25.23;66.44
23427;BME280;41148;45.420;10.952;2023-07-29T07:20:54;100561.16;;;25.28;66.73
23427;BME280;41148;45.420;10.952;2023-07-29T07:23:22;100540.22;;;25.38;66.07
23427;BME280;41148;45.420;10.952;2023-07-29T07:25:49;100544.72;;;25.58;65.19
23427;BME280;41148;45.420;10.952;2023-07-29T07:28:17;100549.59;;;25.64;65.88
23427;BME280;41148;45.420;10.952;2023-07-29T07:30:45;100537.84;;;25.74;64.77
23427;BME280;41148;45.420;10.952;2023-07-29T07:33:12;100548.75;;;25.83;63.87
23427;BME280;41148;45.420;10.952;2023-07-29T07:35:40;100547.31;;;25.99;63.27
23427;BME280;41148;45.420;10.952;2023-07-29T07:38:09;100537.41;;;26.07;63.31
23427;BME280;41148;45.420;10.952;2023-07-29T07:40:37;100532.31;;;26.22;63.04
23427;BME280;41148;45.420;10.952;2023-07-29T07:43:05;100538.63;;;26.32;62.55
23427;BME280;41148;45.420;10.952;2023-07-29T07:45:33;100540.81;;;26.38;62.35
23427;BME280;41148;45.420;10.952;2023-07-29T07:48:00;100537.06;;;26.39;61.52
23427;BME280;41148;45.420;10.952;2023-07-29T07:50:30;100535.75;;;26.43;60.43
23427;BME280;41148;45.420;10.952;2023-07-29T07:52:57;100527.53;;;26.43;60.02
23427;BME280;41148;45.420;10.952;2023-07-29T07:55:25;100534.34;;;26.39;58.42
23427;BME280;41148;45.420;10.952;2023-07-29T07:57:53;100538.19;;;26.37;59.83
23427;BME280;41148;45.420;10.952;2023-07-29T08:00:20;100543.50;;;26.48;60.89
23427;BME280;41148;45.420;10.952;2023-07-29T08:02:48;100544.06;;;26.51;61.03
23427;BME280;41148;45.420;10.952;2023-07-29T08:05:16;100530.66;;;26.58;60.47
23427;BME280;41148;45.420;10.952;2023-07-29T08:07:43;100542.69;;;26.75;59.91
23427;BME280;41148;45.420;10.952;2023-07-29T08:10:11;100535.84;;;26.89;58.86
23427;BME280;41148;45.420;10.952;2023-07-29T08:12:38;100540.56;;;26.96;58.79
23427;BME280;41148;45.420;10.952;2023-07-29T08:15:06;100527.75;;;26.97;58.82
23427;BME280;41148;45.420;10.952;2023-07-29T08:17:34;100540.94;;;27.01;58.40
23427;BME280;41148;45.420;10.952;2023-07-29T08:20:02;100542.13;;;26.99;58.28
23427;BME280;41148;45.420;10.952;2023-07-29T08:22:29;100532.03;;;27.09;57.93
23427;BME280;41148;45.420;10.952;2023-07-29T08:24:57;100538.78;;;27.15;57.55
23427;BME280;41148;45.420;10.952;2023-07-29T08:27:24;100524.47;;;27.21;55.45
23427;BME280;41148;45.420;10.952;2023-07-29T08:29:53;100532.81;;;27.82;55.47
23427;BME280;41148;45.420;10.952;2023-07-29T08:32:21;100521.56;;;27.67;55.67
23427;BME280;41148;45.420;10.952;2023-07-29T08:34:48;100522.03;;;27.81;55.46
23427;BME280;41148;45.420;10.952;2023-07-29T08:37:16;100533.09;;;27.79;54.74
23427;BME280;41148;45.420;10.952;2023-07-29T08:39:44;100532.03;;;28.16;53.64
23427;BME280;41148;45.420;10.952;2023-07-29T08:42:11;100521.53;;;28.55;52.23
23427;BME280;41148;45.420;10.952;2023-07-29T08:44:43;100524.56;;;28.78;51.46
23427;BME280;41148;45.420;10.952;2023-07-29T08:47:11;100518.97;;;28.54;50.36
23427;BME280;41148;45.420;10.952;2023-07-29T08:49:43;100525.00;;;28.91;50.52
23427;BME280;41148;45.420;10.952;2023-07-29T08:52:11;100523.50;;;29.80;48.69
23427;BME280;41148;45.420;10.952;2023-07-29T08:54:39;100516.97;;;30.05;47.03
23427;BME280;41148;45.420;10.952;2023-07-29T08:57:07;100518.47;;;31.04;45.05
23427;BME280;41148;45.420;10.952;2023-07-29T08:59:35;100508.31;;;31.89;42.03
23427;BME280;41148;45.420;10.952;2023-07-29T09:02:03;100522.13;;;31.58;42.85
23427;BME280;41148;45.420;10.952;2023-07-29T09:04:30;100516.69;;;31.96;42.12
23427;BME280;41148;45.420;10.952;2023-07-29T09:06:58;100526.59;;;33.02;39.81
23427;BME280;41148;45.420;10.952;2023-07-29T09:09:26;100525.91;;;33.15;39.24
23427;BME280;41148;45.420;10.952;2023-07-29T09:11:54;100521.06;;;33.74;38.47
23427;BME280;41148;45.420;10.952;2023-07-29T09:14:23;100529.16;;;33.76;38.52
23427;BME280;41148;45.420;10.952;2023-07-29T09:16:51;100510.50;;;34.90;36.21
23427;BME280;41148;45.420;10.952;2023-07-29T09:19:19;100517.44;;;34.79;35.42
23427;BME280;41148;45.420;10.952;2023-07-29T09:21:46;100525.91;;;35.06;35.87
23427;BME280;41148;45.420;10.952;2023-07-29T09:24:16;100514.84;;;35.12;35.89
23427;BME280;41148;45.420;10.952;2023-07-29T09:26:48;100509.09;;;34.66;37.04
23427;BME280;41148;45.420;10.952;2023-07-29T09:29:21;100515.75;;;35.26;36.33
23427;BME280;41148;45.420;10.952;2023-07-29T09:31:49;100511.16;;;35.46;36.10
23427;BME280;41148;45.420;10.952;2023-07-29T09:34:17;100513.78;;;36.34;33.91
23427;BME280;41148;45.420;10.952;2023-07-29T09:36:45;100510.41;;;35.92;35.22
23427;BME280;41148;45.420;10.952;2023-07-29T09:39:12;100514.88;;;36.39;34.52
23427;BME280;41148;45.420;10.952;2023-07-29T09:41:40;100521.78;;;37.02;33.39
23427;BME280;41148;45.420;10.952;2023-07-29T09:44:10;100514.09;;;37.48;32.73
23427;BME280;41148;45.420;10.952;2023-07-29T09:46:38;100520.19;;;36.08;34.09
23427;BME280;41148;45.420;10.952;2023-07-29T09:49:07;100510.41;;;35.18;35.31
23427;BME280;41148;45.420;10.952;2023-07-29T09:51:39;100514.34;;;33.26;39.07
23427;BME280;41148;45.420;10.952;2023-07-29T09:54:09;100509.09;;;32.36;40.87
23427;BME280;41148;45.420;10.952;2023-07-29T09:56:41;100509.88;;;31.38;43.05
23427;BME280;41148;45.420;10.952;2023-07-29T09:59:12;100498.97;;;31.14;44.38
23427;BME280;41148;45.420;10.952;2023-07-29T10:01:41;100499.22;;;30.48;45.34
23427;BME280;41148;45.420;10.952;2023-07-29T10:04:09;100492.22;;;30.38;46.42
23427;BME280;41148;45.420;10.952;2023-07-29T10:06:41;100492.00;;;30.56;45.26
23427;BME280;41148;45.420;10.952;2023-07-29T10:09:11;100492.78;;;30.09;47.12
23427;BME280;41148;45.420;10.952;2023-07-29T10:11:39;100494.16;;;30.05;47.74
23427;BME280;41148;45.420;10.952;2023-07-29T10:14:07;100484.03;;;29.89;48.70
23427;BME280;41148;45.420;10.952;2023-07-29T10:16:40;100486.63;;;29.82;46.84
23427;BME280;41148;45.420;10.952;2023-07-29T10:19:09;100490.72;;;29.86;47.64
23427;BME280;41148;45.420;10.952;2023-07-29T10:21:38;100491.94;;;29.92;47.36
23427;BME280;41148;45.420;10.952;2023-07-29T10:24:14;100476.13;;;29.86;48.58
23427;BME280;41148;45.420;10.952;2023-07-29T10:26:46;100479.72;;;29.62;49.34
23427;BME280;41148;45.420;10.952;2023-07-29T10:29:18;100475.47;;;29.68;49.61
23427;BME280;41148;45.420;10.952;2023-07-29T10:31:47;100486.06;;;29.46;49.49
23427;BME280;41148;45.420;10.952;2023-07-29T10:34:15;100482.81;;;29.59;49.08
23427;BME280;41148;45.420;10.952;2023-07-29T10:36:45;100485.25;;;29.54;48.72
23427;BME280;41148;45.420;10.952;2023-07-29T10:39:14;100468.06;;;29.60;49.47
23427;BME280;41148;45.420;10.952;2023-07-29T10:42:01;100475.81;;;29.73;49.81
23427;BME280;41148;45.420;10.952;2023-07-29T10:47:22;100476.66;;;29.73;47.33
23427;BME280;41148;45.420;10.952;2023-07-29T10:49:55;100472.03;;;29.74;48.13
23427;BME280;41148;45.420;10.952;2023-07-29T10:52:37;100471.31;;;29.72;48.88
23427;BME280;41148;45.420;10.952;2023-07-29T10:55:32;100475.81;;;29.64;48.58
23427;BME280;41148;45.420;10.952;2023-07-29T11:00:36;100476.16;;;29.53;48.65
23427;BME280;41148;45.420;10.952;2023-07-29T11:03:07;100473.66;;;29.18;49.06
23427;BME280;41148;45.420;10.952;2023-07-29T11:05:52;100471.97;;;29.25;49.13
23427;BME280;41148;45.420;10.952;2023-07-29T11:08:27;100474.41;;;29.44;50.01
23427;BME280;41148;45.420;10.952;2023-07-29T11:13:32;100473.91;;;29.81;48.95
23427;BME280;41148;45.420;10.952;2023-07-29T11:16:00;100467.53;;;29.89;49.30
23427;BME280;41148;45.420;10.952;2023-07-29T11:18:31;100470.81;;;29.84;48.53
23427;BME280;41148;45.420;10.952;2023-07-29T11:21:00;100471.16;;;29.81;48.80
23427;BME280;41148;45.420;10.952;2023-07-29T11:23:35;100463.44;;;29.85;49.68
23427;BME280;41148;45.420;10.952;2023-07-29T11:26:04;100454.16;;;29.94;49.28
23427;BME280;41148;45.420;10.952;2023-07-29T11:28:38;100456.41;;;30.07;48.54
23427;BME280;41148;45.420;10.952;2023-07-29T11:31:06;100446.78;;;30.03;49.16
23427;BME280;41148;45.420;10.952;2023-07-29T11:33:33;100451.25;;;30.12;48.79
23427;BME280;41148;45.420;10.952;2023-07-29T11:36:01;100446.94;;;30.09;49.64
23427;BME280;41148;45.420;10.952;2023-07-29T11:38:28;100443.34;;;30.09;48.89
23427;BME280;41148;45.420;10.952;2023-07-29T11:41:00;100439.53;;;30.18;48.36
23427;BME280;41148;45.420;10.952;2023-07-29T11:43:35;100440.91;;;30.22;46.64
23427;BME280;41148;45.420;10.952;2023-07-29T11:46:03;100440.41;;;30.18;47.76
23427;BME280;41148;45.420;10.952;2023-07-29T11:48:32;100428.38;;;30.19;48.21
23427;BME280;41148;45.420;10.952;2023-07-29T11:51:00;100431.28;;;30.18;47.46
23427;BME280;41148;45.420;10.952;2023-07-29T11:53:29;100431.66;;;29.99;46.91
23427;BME280;41148;45.420;10.952;2023-07-29T11:55:58;100433.56;;;29.82;48.27
23427;BME280;41148;45.420;10.952;2023-07-29T11:58:26;100427.22;;;29.89;48.30
23427;BME280;41148;45.420;10.952;2023-07-29T12:00:54;100428.06;;;29.98;48.02
23427;BME280;41148;45.420;10.952;2023-07-29T12:03:22;100430.13;;;30.04;48.53
23427;BME280;41148;45.420;10.952;2023-07-29T12:05:50;100427.03;;;30.07;48.28
23427;BME280;41148;45.420;10.952;2023-07-29T12:08:18;100423.09;;;29.85;49.37
23427;BME280;41148;45.420;10.952;2023-07-29T12:10:46;100434.56;;;29.97;49.63
23427;BME280;41148;45.420;10.952;2023-07-29T12:13:14;100432.69;;;30.14;49.02
23427;BME280;41148;45.420;10.952;2023-07-29T12:15:42;100417.56;;;30.18;48.41
23427;BME280;41148;45.420;10.952;2023-07-29T12:18:09;100422.13;;;30.42;47.06
23427;BME280;41148;45.420;10.952;2023-07-29T12:20:37;100420.97;;;30.20;47.19
23427;BME280;41148;45.420;10.952;2023-07-29T12:23:05;100422.53;;;30.06;48.19
23427;BME280;41148;45.420;10.952;2023-07-29T12:25:34;100415.53;;;30.04;48.75
23427;BME280;41148;45.420;10.952;2023-07-29T12:28:05;100408.84;;;29.82;48.71
23427;BME280;41148;45.420;10.952;2023-07-29T12:30:41;100417.44;;;29.79;49.66
23427;BME280;41148;45.420;10.952;2023-07-29T12:33:09;100412.13;;;29.77;49.12
23427;BME280;41148;45.420;10.952;2023-07-29T12:35:37;100404.06;;;29.84;48.38
23427;BME280;41148;45.420;10.952;2023-07-29T12:38:05;100403.22;;;29.83;49.36
23427;BME280;41148;45.420;10.952;2023-07-29T12:40:38;100395.97;;;29.90;48.56
23427;BME280;41148;45.420;10.952;2023-07-29T12:43:07;100400.28;;;29.85;48.96
23427;BME280;41148;45.420;10.952;2023-07-29T12:45:37;100401.63;;;29.97;48.87
23427;BME280;41148;45.420;10.952;2023-07-29T12:48:08;100402.47;;;30.06;47.82
23427;BME280;41148;45.420;10.952;2023-07-29T12:50:37;100403.72;;;29.79;48.84
23427;BME280;41148;45.420;10.952;2023-07-29T12:53:41;100400.28;;;29.85;49.50
23427;BME280;41148;45.420;10.952;2023-07-29T12:56:08;100390.44;;;29.99;48.63
23427;BME280;41148;45.420;10.952;2023-07-29T12:58:36;100376.56;;;30.08;47.69
23427;BME280;41148;45.420;10.952;2023-07-29T13:01:03;100368.78;;;30.20;47.32
23427;BME280;41148;45.420;10.952;2023-07-29T13:03:31;100383.66;;;30.42;46.94
23427;BME280;41148;45.420;10.952;2023-07-29T13:05:59;100371.84;;;30.33;47.11